Pagina principale
METAR-TAF:

METAR-TAF

Aeroporti :

Batman, Turchia

latitudine: 37-52N, longitudine: 041-10E, altezza: 540 m

Osservazione

Il bollettino è stato emesso 38 minuti fa, alle 01:20 UTC
Vento calmo
Temperature 7°C
Umidità 61%
Pressione 1017 hPa
Visibilità 10 km o più
nessuna nube inferiore a 1500 m e nessun cumulonembo

METAR: LTCJ 250120Z 00000KT CAVOK 07/M00 Q1017 RMK RWY20 00000KT SKC

Ora: 04:58 (01:58 UTC)

Previsione

Il bollettino è stato emesso 3 ore e 18 minuti fa, alle 22:40 UTC
Previsione valida dal 25 alle 00 UTC al 25 alle 24 UTC
Vento 2 kt da direzioni variabili
Visibilità 10 km o più
nessuna nube inferiore a 1500 m e nessun cumulonembo

TAF: LTCJ 242240Z 2500/2524 VRB02KT CAVOK

Osservazioni e previsioni meteorologiche di più di 4000 aeroporti (messaggi METAR e TAF).

Le stazioni disponibili sono rappresentate dai dischi gialli e rossi sulla carta.

Puntare il mouse per vedere il nome della stazione.

Clicca sopra per visualizzare le osservazioni e previsioni meteorologiche.

Per cambiare la mappa : fare clic sui pulsanti verdi con una croce nera per ingrandire, il pulsante verde con un trattino per diminuire, o sulla freccia verde per le mappe adiacenti.


METAR-TAF: